sensor_id;sensor_type;location;lat;lon;timestamp;P1;durP1;ratioP1;P2;durP2;ratioP2
63259;SDS011;49390;51.380;0.098;2022-09-02T00:01:00;14.02;;;7.95;;
63259;SDS011;49390;51.380;0.098;2022-09-02T00:03:38;13.40;;;7.75;;
63259;SDS011;49390;51.380;0.098;2022-09-02T00:06:06;12.48;;;8.10;;
63259;SDS011;49390;51.380;0.098;2022-09-02T00:08:34;10.20;;;7.53;;
63259;SDS011;49390;51.380;0.098;2022-09-02T00:11:03;12.38;;;7.80;;
63259;SDS011;49390;51.380;0.098;2022-09-02T00:13:34;16.65;;;7.30;;
63259;SDS011;49390;51.380;0.098;2022-09-02T00:16:03;10.48;;;6.85;;
63259;SDS011;49390;51.380;0.098;2022-09-02T00:18:33;9.87;;;7.47;;
63259;SDS011;49390;51.380;0.098;2022-09-02T00:21:02;11.10;;;7.30;;
63259;SDS011;49390;51.380;0.098;2022-09-02T00:23:30;12.07;;;7.53;;
63259;SDS011;49390;51.380;0.098;2022-09-02T00:28:16;11.10;;;7.82;;
63259;SDS011;49390;51.380;0.098;2022-09-02T00:30:47;12.70;;;8.18;;
63259;SDS011;49390;51.380;0.098;2022-09-02T00:33:15;11.48;;;7.63;;
63259;SDS011;49390;51.380;0.098;2022-09-02T00:35:44;10.90;;;7.63;;
63259;SDS011;49390;51.380;0.098;2022-09-02T00:38:13;14.55;;;8.32;;
63259;SDS011;49390;51.380;0.098;2022-09-02T00:46:08;13.15;;;7.28;;
63259;SDS011;49390;51.380;0.098;2022-09-02T00:48:38;11.65;;;7.53;;
63259;SDS011;49390;51.380;0.098;2022-09-02T00:51:09;10.10;;;7.13;;
63259;SDS011;49390;51.380;0.098;2022-09-02T00:53:42;12.43;;;7.38;;
63259;SDS011;49390;51.380;0.098;2022-09-02T00:56:15;12.30;;;7.97;;
63259;SDS011;49390;51.380;0.098;2022-09-02T00:58:48;12.57;;;7.78;;
63259;SDS011;49390;51.380;0.098;2022-09-02T01:01:22;13.88;;;7.88;;
63259;SDS011;49390;51.380;0.098;2022-09-02T01:03:51;13.20;;;7.80;;
63259;SDS011;49390;51.380;0.098;2022-09-02T01:06:21;12.95;;;7.80;;
63259;SDS011;49390;51.380;0.098;2022-09-02T01:08:55;13.15;;;7.70;;
63259;SDS011;49390;51.380;0.098;2022-09-02T01:11:35;13.65;;;7.22;;
63259;SDS011;49390;51.380;0.098;2022-09-02T01:14:07;9.98;;;7.13;;
63259;SDS011;49390;51.380;0.098;2022-09-02T01:16:43;11.15;;;7.30;;
63259;SDS011;49390;51.380;0.098;2022-09-02T01:19:28;13.68;;;8.85;;
63259;SDS011;49390;51.380;0.098;2022-09-02T01:22:05;15.05;;;9.05;;
63259;SDS011;49390;51.380;0.098;2022-09-02T01:24:43;14.68;;;9.20;;
63259;SDS011;49390;51.380;0.098;2022-09-02T01:27:15;12.98;;;9.38;;
63259;SDS011;49390;51.380;0.098;2022-09-02T01:29:45;14.15;;;8.77;;
63259;SDS011;49390;51.380;0.098;2022-09-02T01:32:20;15.07;;;8.73;;
63259;SDS011;49390;51.380;0.098;2022-09-02T01:34:49;12.32;;;9.25;;
63259;SDS011;49390;51.380;0.098;2022-09-02T01:37:19;14.85;;;8.73;;
63259;SDS011;49390;51.380;0.098;2022-09-02T01:39:48;11.20;;;9.15;;
63259;SDS011;49390;51.380;0.098;2022-09-02T01:42:19;14.02;;;9.00;;
63259;SDS011;49390;51.380;0.098;2022-09-02T01:44:48;16.60;;;9.00;;
63259;SDS011;49390;51.380;0.098;2022-09-02T01:47:19;12.40;;;9.45;;
63259;SDS011;49390;51.380;0.098;2022-09-02T01:49:50;12.38;;;7.82;;
63259;SDS011;49390;51.380;0.098;2022-09-02T01:52:22;13.98;;;8.10;;
63259;SDS011;49390;51.380;0.098;2022-09-02T01:54:51;11.90;;;7.90;;
63259;SDS011;49390;51.380;0.098;2022-09-02T01:57:20;11.30;;;7.50;;
63259;SDS011;49390;51.380;0.098;2022-09-02T01:59:51;10.73;;;7.88;;
63259;SDS011;49390;51.380;0.098;2022-09-02T02:02:21;11.70;;;7.57;;
63259;SDS011;49390;51.380;0.098;2022-09-02T02:04:51;13.88;;;7.47;;
63259;SDS011;49390;51.380;0.098;2022-09-02T02:07:22;11.65;;;7.95;;
63259;SDS011;49390;51.380;0.098;2022-09-02T02:09:51;12.95;;;8.40;;
63259;SDS011;49390;51.380;0.098;2022-09-02T02:12:20;14.70;;;8.43;;
63259;SDS011;49390;51.380;0.098;2022-09-02T02:14:48;13.02;;;7.82;;
63259;SDS011;49390;51.380;0.098;2022-09-02T02:17:17;11.13;;;8.25;;
63259;SDS011;49390;51.380;0.098;2022-09-02T02:19:46;11.48;;;7.60;;
63259;SDS011;49390;51.380;0.098;2022-09-02T02:22:14;12.32;;;8.07;;
63259;SDS011;49390;51.380;0.098;2022-09-02T02:24:44;10.65;;;6.95;;
63259;SDS011;49390;51.380;0.098;2022-09-02T02:27:12;13.10;;;7.68;;
63259;SDS011;49390;51.380;0.098;2022-09-02T02:29:41;11.00;;;5.65;;
63259;SDS011;49390;51.380;0.098;2022-09-02T02:32:09;11.13;;;6.78;;
63259;SDS011;49390;51.380;0.098;2022-09-02T02:34:38;11.95;;;6.60;;
63259;SDS011;49390;51.380;0.098;2022-09-02T02:37:06;11.70;;;6.47;;
63259;SDS011;49390;51.380;0.098;2022-09-02T02:39:35;10.30;;;6.43;;
63259;SDS011;49390;51.380;0.098;2022-09-02T02:42:03;12.10;;;6.45;;
63259;SDS011;49390;51.380;0.098;2022-09-02T02:44:31;9.45;;;6.32;;
63259;SDS011;49390;51.380;0.098;2022-09-02T02:47:00;11.10;;;5.60;;
63259;SDS011;49390;51.380;0.098;2022-09-02T02:49:29;8.85;;;5.72;;
63259;SDS011;49390;51.380;0.098;2022-09-02T02:51:57;10.32;;;5.78;;
63259;SDS011;49390;51.380;0.098;2022-09-02T02:54:26;10.48;;;6.38;;
63259;SDS011;49390;51.380;0.098;2022-09-02T02:57:03;9.43;;;5.63;;
63259;SDS011;49390;51.380;0.098;2022-09-02T02:59:31;10.80;;;6.00;;
63259;SDS011;49390;51.380;0.098;2022-09-02T03:02:00;8.57;;;5.75;;
63259;SDS011;49390;51.380;0.098;2022-09-02T03:04:28;11.35;;;5.95;;
63259;SDS011;49390;51.380;0.098;2022-09-02T03:06:57;10.38;;;5.57;;
63259;SDS011;49390;51.380;0.098;2022-09-02T03:09:27;11.75;;;6.53;;
63259;SDS011;49390;51.380;0.098;2022-09-02T03:11:56;11.85;;;6.68;;
63259;SDS011;49390;51.380;0.098;2022-09-02T03:14:25;12.75;;;6.45;;
63259;SDS011;49390;51.380;0.098;2022-09-02T03:16:54;10.65;;;6.35;;
63259;SDS011;49390;51.380;0.098;2022-09-02T03:19:22;10.25;;;6.07;;
63259;SDS011;49390;51.380;0.098;2022-09-02T03:21:54;11.68;;;6.13;;
63259;SDS011;49390;51.380;0.098;2022-09-02T03:24:22;11.25;;;6.63;;
63259;SDS011;49390;51.380;0.098;2022-09-02T03:26:50;8.15;;;5.65;;
63259;SDS011;49390;51.380;0.098;2022-09-02T03:29:19;9.32;;;6.45;;
63259;SDS011;49390;51.380;0.098;2022-09-02T03:31:47;10.55;;;6.57;;
63259;SDS011;49390;51.380;0.098;2022-09-02T03:34:24;12.02;;;6.40;;
63259;SDS011;49390;51.380;0.098;2022-09-02T03:36:52;8.93;;;6.35;;
63259;SDS011;49390;51.380;0.098;2022-09-02T03:39:21;15.20;;;6.10;;
63259;SDS011;49390;51.380;0.098;2022-09-02T03:41:49;13.13;;;6.80;;
63259;SDS011;49390;51.380;0.098;2022-09-02T03:44:19;11.27;;;6.50;;
63259;SDS011;49390;51.380;0.098;2022-09-02T03:46:52;10.77;;;6.70;;
63259;SDS011;49390;51.380;0.098;2022-09-02T03:49:21;12.27;;;6.50;;
63259;SDS011;49390;51.380;0.098;2022-09-02T03:51:49;12.02;;;6.53;;
63259;SDS011;49390;51.380;0.098;2022-09-02T03:54:17;11.60;;;6.38;;
63259;SDS011;49390;51.380;0.098;2022-09-02T03:56:46;11.60;;;6.60;;
63259;SDS011;49390;51.380;0.098;2022-09-02T03:59:15;10.50;;;6.50;;
63259;SDS011;49390;51.380;0.098;2022-09-02T04:01:43;11.05;;;6.90;;
63259;SDS011;49390;51.380;0.098;2022-09-02T04:04:14;13.50;;;7.18;;
63259;SDS011;49390;51.380;0.098;2022-09-02T04:06:50;9.48;;;6.60;;
63259;SDS011;49390;51.380;0.098;2022-09-02T04:09:18;9.95;;;6.90;;
63259;SDS011;49390;51.380;0.098;2022-09-02T04:11:48;10.18;;;6.90;;
63259;SDS011;49390;51.380;0.098;2022-09-02T04:14:17;11.43;;;7.50;;
63259;SDS011;49390;51.380;0.098;2022-09-02T04:16:46;16.10;;;7.65;;
63259;SDS011;49390;51.380;0.098;2022-09-02T04:19:15;10.82;;;7.47;;
63259;SDS011;49390;51.380;0.098;2022-09-02T04:21:43;12.07;;;7.00;;
63259;SDS011;49390;51.380;0.098;2022-09-02T04:24:12;13.35;;;7.30;;
63259;SDS011;49390;51.380;0.098;2022-09-02T04:26:45;11.63;;;7.28;;
63259;SDS011;49390;51.380;0.098;2022-09-02T04:29:16;12.70;;;7.60;;
63259;SDS011;49390;51.380;0.098;2022-09-02T04:34:15;11.80;;;7.57;;
63259;SDS011;49390;51.380;0.098;2022-09-02T04:36:46;13.45;;;7.55;;
63259;SDS011;49390;51.380;0.098;2022-09-02T04:39:17;10.10;;;7.18;;
63259;SDS011;49390;51.380;0.098;2022-09-02T04:41:45;10.65;;;6.97;;
63259;SDS011;49390;51.380;0.098;2022-09-02T04:44:15;15.48;;;7.78;;
63259;SDS011;49390;51.380;0.098;2022-09-02T04:49:18;12.60;;;7.47;;
63259;SDS011;49390;51.380;0.098;2022-09-02T04:51:50;14.88;;;7.97;;
63259;SDS011;49390;51.380;0.098;2022-09-02T04:54:23;13.20;;;7.60;;
63259;SDS011;49390;51.380;0.098;2022-09-02T04:56:52;13.30;;;7.72;;
63259;SDS011;49390;51.380;0.098;2022-09-02T04:59:22;14.30;;;7.88;;
63259;SDS011;49390;51.380;0.098;2022-09-02T05:02:12;11.17;;;7.27;;
63259;SDS011;49390;51.380;0.098;2022-09-02T05:04:42;13.73;;;7.28;;
63259;SDS011;49390;51.380;0.098;2022-09-02T05:07:18;11.32;;;8.10;;
63259;SDS011;49390;51.380;0.098;2022-09-02T05:09:47;11.15;;;8.00;;
63259;SDS011;49390;51.380;0.098;2022-09-02T05:12:17;10.80;;;7.50;;
63259;SDS011;49390;51.380;0.098;2022-09-02T05:14:51;13.32;;;7.82;;
63259;SDS011;49390;51.380;0.098;2022-09-02T05:17:22;11.45;;;7.55;;
63259;SDS011;49390;51.380;0.098;2022-09-02T05:19:50;11.82;;;7.47;;
63259;SDS011;49390;51.380;0.098;2022-09-02T05:22:18;10.80;;;7.25;;
63259;SDS011;49390;51.380;0.098;2022-09-02T05:24:46;12.13;;;7.43;;
63259;SDS011;49390;51.380;0.098;2022-09-02T05:27:15;13.93;;;7.82;;
63259;SDS011;49390;51.380;0.098;2022-09-02T05:30:33;13.23;;;7.50;;
63259;SDS011;49390;51.380;0.098;2022-09-02T05:33:04;13.02;;;8.13;;
63259;SDS011;49390;51.380;0.098;2022-09-02T05:35:32;14.10;;;7.78;;
63259;SDS011;49390;51.380;0.098;2022-09-02T05:38:07;14.23;;;8.02;;
63259;SDS011;49390;51.380;0.098;2022-09-02T05:40:36;12.70;;;7.80;;
63259;SDS011;49390;51.380;0.098;2022-09-02T05:43:08;13.38;;;8.43;;
63259;SDS011;49390;51.380;0.098;2022-09-02T05:45:37;14.00;;;7.60;;
63259;SDS011;49390;51.380;0.098;2022-09-02T05:48:06;11.43;;;8.00;;
63259;SDS011;49390;51.380;0.098;2022-09-02T05:50:55;11.77;;;7.75;;
63259;SDS011;49390;51.380;0.098;2022-09-02T05:53:26;14.75;;;7.80;;
63259;SDS011;49390;51.380;0.098;2022-09-02T05:55:54;12.63;;;7.85;;
63259;SDS011;49390;51.380;0.098;2022-09-02T05:58:24;11.73;;;8.27;;
63259;SDS011;49390;51.380;0.098;2022-09-02T06:00:53;13.07;;;8.15;;
63259;SDS011;49390;51.380;0.098;2022-09-02T06:03:21;15.65;;;7.68;;
63259;SDS011;49390;51.380;0.098;2022-09-02T06:05:56;12.55;;;8.30;;
63259;SDS011;49390;51.380;0.098;2022-09-02T06:08:31;12.48;;;8.20;;
63259;SDS011;49390;51.380;0.098;2022-09-02T06:11:01;11.95;;;7.80;;
63259;SDS011;49390;51.380;0.098;2022-09-02T06:13:33;13.85;;;8.18;;
63259;SDS011;49390;51.380;0.098;2022-09-02T06:16:04;10.32;;;7.50;;
63259;SDS011;49390;51.380;0.098;2022-09-02T06:18:39;13.10;;;8.07;;
63259;SDS011;49390;51.380;0.098;2022-09-02T06:21:07;12.80;;;7.47;;
63259;SDS011;49390;51.380;0.098;2022-09-02T06:23:41;12.32;;;7.97;;
63259;SDS011;49390;51.380;0.098;2022-09-02T06:28:32;13.80;;;8.05;;
63259;SDS011;49390;51.380;0.098;2022-09-02T06:31:06;14.05;;;7.97;;
63259;SDS011;49390;51.380;0.098;2022-09-02T06:33:42;12.77;;;7.50;;
63259;SDS011;49390;51.380;0.098;2022-09-02T06:36:16;14.27;;;8.05;;
63259;SDS011;49390;51.380;0.098;2022-09-02T06:38:45;13.13;;;8.27;;
63259;SDS011;49390;51.380;0.098;2022-09-02T06:41:17;11.95;;;7.75;;
63259;SDS011;49390;51.380;0.098;2022-09-02T06:43:51;13.82;;;8.35;;
63259;SDS011;49390;51.380;0.098;2022-09-02T06:46:26;14.07;;;8.05;;
63259;SDS011;49390;51.380;0.098;2022-09-02T06:48:59;15.80;;;7.60;;
63259;SDS011;49390;51.380;0.098;2022-09-02T06:51:32;13.93;;;8.23;;
63259;SDS011;49390;51.380;0.098;2022-09-02T06:54:07;13.23;;;7.65;;
63259;SDS011;49390;51.380;0.098;2022-09-02T06:56:40;13.20;;;7.80;;
63259;SDS011;49390;51.380;0.098;2022-09-02T06:59:18;11.70;;;7.72;;
63259;SDS011;49390;51.380;0.098;2022-09-02T07:01:57;11.73;;;7.63;;
63259;SDS011;49390;51.380;0.098;2022-09-02T07:04:27;11.73;;;7.85;;
63259;SDS011;49390;51.380;0.098;2022-09-02T07:07:18;12.25;;;7.88;;
63259;SDS011;49390;51.380;0.098;2022-09-02T07:09:52;11.40;;;7.65;;
63259;SDS011;49390;51.380;0.098;2022-09-02T07:12:22;19.08;;;8.38;;
63259;SDS011;49390;51.380;0.098;2022-09-02T07:15:03;15.23;;;8.15;;
63259;SDS011;49390;51.380;0.098;2022-09-02T07:17:37;13.98;;;8.07;;
63259;SDS011;49390;51.380;0.098;2022-09-02T07:20:23;15.88;;;8.10;;
63259;SDS011;49390;51.380;0.098;2022-09-02T07:22:58;17.30;;;7.75;;
63259;SDS011;49390;51.380;0.098;2022-09-02T07:25:30;15.45;;;7.88;;
63259;SDS011;49390;51.380;0.098;2022-09-02T07:27:58;12.95;;;7.75;;
63259;SDS011;49390;51.380;0.098;2022-09-02T07:30:31;12.55;;;7.38;;
63259;SDS011;49390;51.380;0.098;2022-09-02T07:33:06;14.48;;;8.50;;
63259;SDS011;49390;51.380;0.098;2022-09-02T07:35:35;12.75;;;7.38;;
63259;SDS011;49390;51.380;0.098;2022-09-02T07:38:06;12.95;;;8.13;;
63259;SDS011;49390;51.380;0.098;2022-09-02T07:40:37;17.97;;;8.60;;
63259;SDS011;49390;51.380;0.098;2022-09-02T07:43:08;10.30;;;7.35;;
63259;SDS011;49390;51.380;0.098;2022-09-02T07:45:39;14.40;;;8.82;;
63259;SDS011;49390;51.380;0.098;2022-09-02T07:48:10;14.98;;;8.23;;
63259;SDS011;49390;51.380;0.098;2022-09-02T07:50:38;11.93;;;8.07;;
63259;SDS011;49390;51.380;0.098;2022-09-02T07:53:13;12.60;;;8.00;;
63259;SDS011;49390;51.380;0.098;2022-09-02T07:55:44;17.08;;;8.50;;
63259;SDS011;49390;51.380;0.098;2022-09-02T07:58:17;15.85;;;8.63;;
63259;SDS011;49390;51.380;0.098;2022-09-02T08:00:49;15.40;;;8.35;;
63259;SDS011;49390;51.380;0.098;2022-09-02T08:03:18;13.02;;;9.20;;
63259;SDS011;49390;51.380;0.098;2022-09-02T08:05:51;15.48;;;9.45;;
63259;SDS011;49390;51.380;0.098;2022-09-02T08:08:20;14.25;;;9.63;;
63259;SDS011;49390;51.380;0.098;2022-09-02T08:10:49;16.15;;;9.05;;
63259;SDS011;49390;51.380;0.098;2022-09-02T08:13:22;15.70;;;8.80;;
63259;SDS011;49390;51.380;0.098;2022-09-02T08:15:56;13.57;;;8.90;;
63259;SDS011;49390;51.380;0.098;2022-09-02T08:18:24;17.02;;;9.20;;
63259;SDS011;49390;51.380;0.098;2022-09-02T08:20:53;13.70;;;8.75;;
63259;SDS011;49390;51.380;0.098;2022-09-02T08:23:21;14.75;;;9.73;;
63259;SDS011;49390;51.380;0.098;2022-09-02T08:26:04;13.95;;;9.30;;
63259;SDS011;49390;51.380;0.098;2022-09-02T08:28:33;16.85;;;10.40;;
63259;SDS011;49390;51.380;0.098;2022-09-02T08:31:04;15.80;;;9.40;;
63259;SDS011;49390;51.380;0.098;2022-09-02T08:33:33;15.32;;;10.02;;
63259;SDS011;49390;51.380;0.098;2022-09-02T08:36:03;15.85;;;9.93;;
63259;SDS011;49390;51.380;0.098;2022-09-02T08:38:33;12.68;;;8.63;;
63259;SDS011;49390;51.380;0.098;2022-09-02T08:41:09;17.33;;;9.18;;
63259;SDS011;49390;51.380;0.098;2022-09-02T08:43:50;13.10;;;9.60;;
63259;SDS011;49390;51.380;0.098;2022-09-02T08:46:29;12.88;;;7.78;;
63259;SDS011;49390;51.380;0.098;2022-09-02T08:49:08;16.48;;;8.40;;
63259;SDS011;49390;51.380;0.098;2022-09-02T08:51:51;17.08;;;9.07;;
63259;SDS011;49390;51.380;0.098;2022-09-02T08:54:33;15.27;;;8.93;;
63259;SDS011;49390;51.380;0.098;2022-09-02T08:57:15;17.67;;;8.68;;
63259;SDS011;49390;51.380;0.098;2022-09-02T08:59:45;14.98;;;8.77;;
63259;SDS011;49390;51.380;0.098;2022-09-02T09:07:55;16.25;;;9.65;;
63259;SDS011;49390;51.380;0.098;2022-09-02T09:16:30;15.60;;;8.38;;
63259;SDS011;49390;51.380;0.098;2022-09-02T09:21:40;12.40;;;7.55;;
63259;SDS011;49390;51.380;0.098;2022-09-02T09:24:17;13.55;;;7.88;;
63259;SDS011;49390;51.380;0.098;2022-09-02T09:27:10;13.77;;;7.57;;
63259;SDS011;49390;51.380;0.098;2022-09-02T09:29:45;15.25;;;8.60;;
63259;SDS011;49390;51.380;0.098;2022-09-02T09:32:20;15.10;;;7.88;;
63259;SDS011;49390;51.380;0.098;2022-09-02T09:38:03;13.10;;;7.35;;
63259;SDS011;49390;51.380;0.098;2022-09-02T09:45:42;10.52;;;6.68;;
63259;SDS011;49390;51.380;0.098;2022-09-02T09:53:33;12.80;;;6.95;;
63259;SDS011;49390;51.380;0.098;2022-09-02T09:56:05;11.20;;;6.40;;
63259;SDS011;49390;51.380;0.098;2022-09-02T09:58:54;12.63;;;6.60;;
63259;SDS011;49390;51.380;0.098;2022-09-02T10:01:29;12.63;;;6.55;;
63259;SDS011;49390;51.380;0.098;2022-09-02T10:04:12;15.55;;;6.75;;
63259;SDS011;49390;51.380;0.098;2022-09-02T10:09:40;11.35;;;6.45;;
63259;SDS011;49390;51.380;0.098;2022-09-02T10:12:11;9.10;;;6.72;;
63259;SDS011;49390;51.380;0.098;2022-09-02T10:20:07;15.55;;;7.50;;
63259;SDS011;49390;51.380;0.098;2022-09-02T10:34:19;13.77;;;6.28;;
63259;SDS011;49390;51.380;0.098;2022-09-02T10:51:00;10.18;;;6.25;;
63259;SDS011;49390;51.380;0.098;2022-09-02T10:57:11;12.35;;;6.82;;
63259;SDS011;49390;51.380;0.098;2022-09-02T11:02:28;11.75;;;6.35;;
63259;SDS011;49390;51.380;0.098;2022-09-02T11:13:34;9.18;;;5.88;;
63259;SDS011;49390;51.380;0.098;2022-09-02T11:16:21;10.30;;;6.18;;
63259;SDS011;49390;51.380;0.098;2022-09-02T11:24:11;11.55;;;6.13;;
63259;SDS011;49390;51.380;0.098;2022-09-02T11:32:47;11.43;;;5.63;;
63259;SDS011;49390;51.380;0.098;2022-09-02T11:35:35;12.65;;;6.93;;
63259;SDS011;49390;51.380;0.098;2022-09-02T11:38:15;10.73;;;6.07;;
63259;SDS011;49390;51.380;0.098;2022-09-02T11:41:10;12.23;;;7.35;;
63259;SDS011;49390;51.380;0.098;2022-09-02T11:54:44;10.13;;;6.45;;
63259;SDS011;49390;51.380;0.098;2022-09-02T11:57:22;10.75;;;6.82;;
63259;SDS011;49390;51.380;0.098;2022-09-02T12:07:59;12.43;;;7.63;;
63259;SDS011;49390;51.380;0.098;2022-09-02T12:13:11;11.35;;;7.00;;
63259;SDS011;49390;51.380;0.098;2022-09-02T12:26:27;12.25;;;7.70;;
63259;SDS011;49390;51.380;0.098;2022-09-02T12:29:10;11.80;;;7.82;;
63259;SDS011;49390;51.380;0.098;2022-09-02T12:31:42;15.52;;;9.20;;
63259;SDS011;49390;51.380;0.098;2022-09-02T12:36:55;18.95;;;9.60;;
63259;SDS011;49390;51.380;0.098;2022-09-02T12:41:56;14.52;;;8.77;;
63259;SDS011;49390;51.380;0.098;2022-09-02T12:47:41;17.75;;;10.43;;
63259;SDS011;49390;51.380;0.098;2022-09-02T12:55:53;24.15;;;16.25;;
63259;SDS011;49390;51.380;0.098;2022-09-02T12:58:34;14.52;;;10.70;;
63259;SDS011;49390;51.380;0.098;2022-09-02T13:21:29;32.40;;;20.15;;
63259;SDS011;49390;51.380;0.098;2022-09-02T13:32:58;16.33;;;9.52;;
63259;SDS011;49390;51.380;0.098;2022-09-02T13:35:34;14.98;;;9.63;;
63259;SDS011;49390;51.380;0.098;2022-09-02T13:38:12;17.45;;;9.55;;
63259;SDS011;49390;51.380;0.098;2022-09-02T13:40:44;13.38;;;8.88;;
63259;SDS011;49390;51.380;0.098;2022-09-02T13:45:41;16.20;;;9.88;;
63259;SDS011;49390;51.380;0.098;2022-09-02T13:48:16;19.10;;;10.55;;
63259;SDS011;49390;51.380;0.098;2022-09-02T13:50:51;18.27;;;9.90;;
63259;SDS011;49390;51.380;0.098;2022-09-02T13:56:23;20.67;;;11.02;;
63259;SDS011;49390;51.380;0.098;2022-09-02T13:58:54;20.73;;;11.43;;
63259;SDS011;49390;51.380;0.098;2022-09-02T14:01:31;18.92;;;11.25;;
63259;SDS011;49390;51.380;0.098;2022-09-02T14:04:08;23.23;;;13.02;;
63259;SDS011;49390;51.380;0.098;2022-09-02T14:06:43;21.25;;;12.95;;
63259;SDS011;49390;51.380;0.098;2022-09-02T14:09:21;19.83;;;12.95;;
63259;SDS011;49390;51.380;0.098;2022-09-02T14:11:53;26.75;;;14.55;;
63259;SDS011;49390;51.380;0.098;2022-09-02T14:14:23;23.75;;;13.75;;
63259;SDS011;49390;51.380;0.098;2022-09-02T14:16:54;27.20;;;15.15;;
63259;SDS011;49390;51.380;0.098;2022-09-02T14:19:44;20.73;;;13.82;;
63259;SDS011;49390;51.380;0.098;2022-09-02T14:22:23;24.52;;;13.65;;
63259;SDS011;49390;51.380;0.098;2022-09-02T14:24:55;23.20;;;14.27;;
63259;SDS011;49390;51.380;0.098;2022-09-02T14:27:24;24.17;;;14.60;;
63259;SDS011;49390;51.380;0.098;2022-09-02T14:29:54;22.27;;;13.65;;
63259;SDS011;49390;51.380;0.098;2022-09-02T14:32:26;25.40;;;14.07;;
63259;SDS011;49390;51.380;0.098;2022-09-02T14:40:38;25.88;;;15.25;;
63259;SDS011;49390;51.380;0.098;2022-09-02T14:43:11;27.23;;;14.48;;
63259;SDS011;49390;51.380;0.098;2022-09-02T14:45:42;22.93;;;13.70;;
63259;SDS011;49390;51.380;0.098;2022-09-02T14:48:20;27.40;;;17.45;;
63259;SDS011;49390;51.380;0.098;2022-09-02T14:50:57;23.02;;;15.27;;
63259;SDS011;49390;51.380;0.098;2022-09-02T14:53:29;33.47;;;20.20;;
63259;SDS011;49390;51.380;0.098;2022-09-02T14:55:59;35.40;;;21.13;;
63259;SDS011;49390;51.380;0.098;2022-09-02T14:58:28;24.52;;;16.73;;
63259;SDS011;49390;51.380;0.098;2022-09-02T15:01:02;24.35;;;16.25;;
63259;SDS011;49390;51.380;0.098;2022-09-02T15:03:31;23.70;;;17.15;;
63259;SDS011;49390;51.380;0.098;2022-09-02T15:06:04;27.73;;;15.93;;
63259;SDS011;49390;51.380;0.098;2022-09-02T15:08:32;24.02;;;15.10;;
63259;SDS011;49390;51.380;0.098;2022-09-02T15:11:02;20.20;;;12.27;;
63259;SDS011;49390;51.380;0.098;2022-09-02T15:13:32;25.23;;;13.35;;
63259;SDS011;49390;51.380;0.098;2022-09-02T15:16:01;30.17;;;18.75;;
63259;SDS011;49390;51.380;0.098;2022-09-02T15:18:30;16.38;;;11.73;;
63259;SDS011;49390;51.380;0.098;2022-09-02T15:20:58;23.83;;;15.10;;
63259;SDS011;49390;51.380;0.098;2022-09-02T15:23:27;18.15;;;11.48;;
63259;SDS011;49390;51.380;0.098;2022-09-02T15:26:01;17.08;;;11.27;;
63259;SDS011;49390;51.380;0.098;2022-09-02T15:28:30;18.25;;;11.48;;
63259;SDS011;49390;51.380;0.098;2022-09-02T15:30:59;16.58;;;11.80;;
63259;SDS011;49390;51.380;0.098;2022-09-02T15:33:28;20.95;;;11.88;;
63259;SDS011;49390;51.380;0.098;2022-09-02T15:36:09;22.13;;;13.55;;
63259;SDS011;49390;51.380;0.098;2022-09-02T15:38:39;20.48;;;13.13;;
63259;SDS011;49390;51.380;0.098;2022-09-02T15:41:09;24.27;;;14.85;;
63259;SDS011;49390;51.380;0.098;2022-09-02T15:43:39;25.08;;;15.75;;
63259;SDS011;49390;51.380;0.098;2022-09-02T15:46:27;23.75;;;16.45;;
63259;SDS011;49390;51.380;0.098;2022-09-02T15:49:00;24.38;;;15.50;;
63259;SDS011;49390;51.380;0.098;2022-09-02T15:51:31;29.23;;;18.00;;
63259;SDS011;49390;51.380;0.098;2022-09-02T15:54:01;25.27;;;16.27;;
63259;SDS011;49390;51.380;0.098;2022-09-02T15:56:31;26.80;;;16.00;;
63259;SDS011;49390;51.380;0.098;2022-09-02T15:59:02;22.92;;;15.43;;
63259;SDS011;49390;51.380;0.098;2022-09-02T16:01:39;24.05;;;16.27;;
63259;SDS011;49390;51.380;0.098;2022-09-02T16:04:10;22.67;;;16.15;;
63259;SDS011;49390;51.380;0.098;2022-09-02T16:06:40;24.17;;;16.10;;
63259;SDS011;49390;51.380;0.098;2022-09-02T16:09:11;32.88;;;17.45;;
63259;SDS011;49390;51.380;0.098;2022-09-02T16:11:41;40.13;;;24.20;;
63259;SDS011;49390;51.380;0.098;2022-09-02T16:14:12;40.40;;;24.08;;
63259;SDS011;49390;51.380;0.098;2022-09-02T16:16:47;37.50;;;23.27;;
63259;SDS011;49390;51.380;0.098;2022-09-02T16:19:18;32.15;;;19.10;;
63259;SDS011;49390;51.380;0.098;2022-09-02T16:21:48;34.40;;;21.02;;
63259;SDS011;49390;51.380;0.098;2022-09-02T16:24:17;33.05;;;21.23;;
63259;SDS011;49390;51.380;0.098;2022-09-02T16:26:48;35.50;;;20.75;;
63259;SDS011;49390;51.380;0.098;2022-09-02T16:29:17;31.80;;;20.42;;
63259;SDS011;49390;51.380;0.098;2022-09-02T16:31:46;39.80;;;22.75;;
63259;SDS011;49390;51.380;0.098;2022-09-02T16:34:36;38.55;;;22.60;;
63259;SDS011;49390;51.380;0.098;2022-09-02T16:37:04;40.95;;;23.80;;
63259;SDS011;49390;51.380;0.098;2022-09-02T16:39:33;41.90;;;24.25;;
63259;SDS011;49390;51.380;0.098;2022-09-02T16:42:01;37.88;;;23.77;;
63259;SDS011;49390;51.380;0.098;2022-09-02T16:44:30;41.15;;;23.00;;
63259;SDS011;49390;51.380;0.098;2022-09-02T16:47:00;39.67;;;23.95;;
63259;SDS011;49390;51.380;0.098;2022-09-02T16:49:29;46.03;;;29.67;;
63259;SDS011;49390;51.380;0.098;2022-09-02T16:51:58;43.33;;;26.85;;
63259;SDS011;49390;51.380;0.098;2022-09-02T16:54:26;48.70;;;26.52;;
63259;SDS011;49390;51.380;0.098;2022-09-02T16:57:03;44.88;;;26.58;;
63259;SDS011;49390;51.380;0.098;2022-09-02T16:59:32;47.17;;;26.23;;
63259;SDS011;49390;51.380;0.098;2022-09-02T17:02:02;42.65;;;24.60;;
63259;SDS011;49390;51.380;0.098;2022-09-02T17:04:30;42.20;;;25.90;;
63259;SDS011;49390;51.380;0.098;2022-09-02T17:06:58;43.70;;;26.05;;
63259;SDS011;49390;51.380;0.098;2022-09-02T17:09:26;38.08;;;23.42;;
63259;SDS011;49390;51.380;0.098;2022-09-02T17:11:55;39.00;;;23.15;;
63259;SDS011;49390;51.380;0.098;2022-09-02T17:14:24;39.17;;;24.35;;
63259;SDS011;49390;51.380;0.098;2022-09-02T17:16:52;38.80;;;23.17;;
63259;SDS011;49390;51.380;0.098;2022-09-02T17:19:20;30.50;;;18.85;;
63259;SDS011;49390;51.380;0.098;2022-09-02T17:21:53;31.58;;;19.27;;
63259;SDS011;49390;51.380;0.098;2022-09-02T17:24:23;37.17;;;22.65;;
63259;SDS011;49390;51.380;0.098;2022-09-02T17:26:55;35.75;;;22.23;;
63259;SDS011;49390;51.380;0.098;2022-09-02T17:29:23;40.40;;;23.02;;
63259;SDS011;49390;51.380;0.098;2022-09-02T17:32:17;36.97;;;23.42;;
63259;SDS011;49390;51.380;0.098;2022-09-02T17:34:48;32.80;;;20.30;;
63259;SDS011;49390;51.380;0.098;2022-09-02T17:37:17;34.08;;;20.92;;
63259;SDS011;49390;51.380;0.098;2022-09-02T17:39:52;36.10;;;20.90;;
63259;SDS011;49390;51.380;0.098;2022-09-02T17:42:20;40.15;;;19.80;;
63259;SDS011;49390;51.380;0.098;2022-09-02T17:44:48;30.05;;;20.73;;
63259;SDS011;49390;51.380;0.098;2022-09-02T17:47:18;30.02;;;19.30;;
63259;SDS011;49390;51.380;0.098;2022-09-02T17:52:20;38.63;;;23.75;;
63259;SDS011;49390;51.380;0.098;2022-09-02T17:54:50;31.75;;;19.27;;
63259;SDS011;49390;51.380;0.098;2022-09-02T18:00:13;29.35;;;18.27;;
63259;SDS011;49390;51.380;0.098;2022-09-02T18:08:27;38.85;;;23.60;;
63259;SDS011;49390;51.380;0.098;2022-09-02T18:11:05;30.77;;;19.92;;
63259;SDS011;49390;51.380;0.098;2022-09-02T18:16:30;31.38;;;20.35;;
63259;SDS011;49390;51.380;0.098;2022-09-02T18:27:38;36.45;;;21.20;;
63259;SDS011;49390;51.380;0.098;2022-09-02T18:30:22;39.63;;;24.08;;
63259;SDS011;49390;51.380;0.098;2022-09-02T18:35:50;60.40;;;35.40;;